Time,TemperatureF,DewpointF,PressureIn,WindDirection,WindDirectionDegrees,WindSpeedMPH,WindSpeedGustMPH,Humidity,HourlyPrecipIn,Conditions,Clouds,dailyrainin,SoftwareType,DateUTC
2013-01-16 02:53:00,12.0,9.0,30.47,North,360,1.0,4.0,87,0.00,,,0.00,,2013-01-16 09:53:00,
2013-01-16 03:02:00,12.0,9.0,30.47,ENE,60,2.0,6.0,87,0.00,,,0.00,,2013-01-16 10:02:00,
2013-01-16 03:12:00,12.0,9.0,30.47,ENE,60,2.0,6.0,87,0.00,,,0.00,,2013-01-16 10:12:00,
2013-01-16 03:22:00,10.0,7.0,30.48,East,83,0.0,3.0,87,0.00,,,0.00,,2013-01-16 10:22:00,
2013-01-16 03:32:00,10.0,7.0,30.50,SE,132,0.0,1.0,87,0.00,,,0.00,,2013-01-16 10:32:00,
2013-01-16 03:42:00,10.0,7.0,30.50,SE,132,0.0,1.0,87,0.00,,,0.00,,2013-01-16 10:42:00,
2013-01-16 03:52:00,10.0,7.0,30.50,East,80,2.0,9.0,88,0.00,,,0.00,,2013-01-16 10:52:00,
2013-01-16 04:02:00,11.0,8.0,30.48,South,189,0.0,4.0,88,0.00,,,0.00,,2013-01-16 11:02:00,
2013-01-16 04:11:00,11.0,8.0,30.48,South,189,0.0,4.0,88,0.00,,,0.00,,2013-01-16 11:11:00,
2013-01-16 04:22:00,10.0,7.0,30.50,East,83,0.0,3.0,88,0.00,,,0.00,,2013-01-16 11:22:00,
2013-01-16 04:32:00,9.0,6.0,30.50,East,89,0.0,0.0,87,0.00,,,0.00,,2013-01-16 11:32:00,
2013-01-16 04:42:00,9.0,6.0,30.50,East,89,0.0,0.0,87,0.00,,,0.00,,2013-01-16 11:42:00,
2013-01-16 04:52:00,8.0,5.0,30.50,NE,39,0.0,1.0,87,0.00,,,0.00,,2013-01-16 11:52:00,
2013-01-16 05:02:00,9.0,6.0,30.50,NE,39,0.0,2.0,88,0.00,,,0.00,,2013-01-16 12:02:00,
2013-01-16 05:12:00,9.0,6.0,30.50,NE,39,0.0,2.0,88,0.00,,,0.00,,2013-01-16 12:12:00,
2013-01-16 05:22:00,9.0,6.0,30.49,NE,40,0.0,0.0,87,0.00,,,0.00,,2013-01-16 12:22:00,
2013-01-16 05:32:00,9.0,6.0,30.47,NE,40,0.0,0.0,88,0.00,,,0.00,,2013-01-16 12:32:00,
2013-01-16 05:42:00,9.0,6.0,30.47,NE,40,0.0,0.0,88,0.00,,,0.00,,2013-01-16 12:42:00,
2013-01-16 05:53:00,9.0,6.0,30.47,NE,40,0.0,0.0,87,0.00,,,0.00,,2013-01-16 12:53:00,
2013-01-16 06:02:00,8.0,5.0,30.47,NE,40,0.0,0.0,87,0.00,,,0.00,,2013-01-16 13:02:00,
2013-01-16 06:12:00,8.0,5.0,30.47,NE,40,0.0,0.0,87,0.00,,,0.00,,2013-01-16 13:12:00,
2013-01-16 06:22:00,7.0,4.0,30.47,NE,40,0.0,0.0,87,0.00,,,0.00,,2013-01-16 13:22:00,
2013-01-16 06:32:00,7.0,4.0,30.47,NE,40,0.0,0.0,87,0.00,,,0.00,,2013-01-16 13:32:00,
2013-01-16 06:42:00,7.0,4.0,30.47,NE,40,0.0,0.0,87,0.00,,,0.00,,2013-01-16 13:42:00,
2013-01-16 06:53:00,8.0,5.0,30.49,NE,40,0.0,0.0,87,0.00,,,0.00,,2013-01-16 13:53:00,
2013-01-16 07:02:00,8.0,5.0,30.49,NE,39,0.0,0.0,87,0.00,,,0.00,,2013-01-16 14:02:00,
2013-01-16 07:12:00,8.0,5.0,30.49,NE,39,0.0,0.0,87,0.00,,,0.00,,2013-01-16 14:12:00,
2013-01-16 07:22:00,8.0,5.0,30.49,NE,40,0.0,1.0,87,0.00,,,0.00,,2013-01-16 14:22:00,
2013-01-16 07:32:00,8.0,5.0,30.47,NNE,25,0.0,2.0,88,0.00,,,0.00,,2013-01-16 14:32:00,
2013-01-16 07:42:00,8.0,5.0,30.47,NNE,25,0.0,2.0,88,0.00,,,0.00,,2013-01-16 14:42:00,
2013-01-16 07:53:00,8.0,5.0,30.47,NNE,25,0.0,2.0,88,0.00,,,0.00,,2013-01-16 14:53:00,
2013-01-16 08:02:00,8.0,5.0,30.48,NNE,25,0.0,2.0,89,0.00,,,0.00,,2013-01-16 15:02:00,
2013-01-16 08:12:00,8.0,5.0,30.48,NNE,25,0.0,2.0,89,0.00,,,0.00,,2013-01-16 15:12:00,
2013-01-16 08:22:00,8.0,5.0,30.48,NNE,25,0.0,2.0,89,0.00,,,0.00,,2013-01-16 15:22:00,
2013-01-16 08:32:00,9.0,6.0,30.50,NNE,25,0.0,1.0,89,0.00,,,0.00,,2013-01-16 15:32:00,
2013-01-16 08:42:00,9.0,6.0,30.50,NNE,25,0.0,1.0,89,0.00,,,0.00,,2013-01-16 15:42:00,
2013-01-16 08:53:00,8.0,5.0,30.50,ESE,114,0.0,0.0,89,0.00,,,0.00,,2013-01-16 15:53:00,
2013-01-16 09:03:00,8.0,5.0,30.51,ESE,115,0.0,0.0,89,0.00,,,0.00,,2013-01-16 16:03:00,
2013-01-16 09:11:00,8.0,5.0,30.51,ESE,115,0.0,0.0,89,0.00,,,0.00,,2013-01-16 16:11:00,
2013-01-16 09:22:00,9.0,6.0,30.52,ESE,114,0.0,0.0,89,0.00,,,0.00,,2013-01-16 16:22:00,
2013-01-16 09:32:00,9.0,6.0,30.53,ESE,115,0.0,0.0,89,0.00,,,0.00,,2013-01-16 16:32:00,
2013-01-16 09:42:00,9.0,6.0,30.53,ESE,115,0.0,0.0,89,0.00,,,0.00,,2013-01-16 16:42:00,
2013-01-16 09:52:00,10.0,7.0,30.53,ESE,114,0.0,2.0,89,0.00,,,0.00,,2013-01-16 16:52:00,
2013-01-16 10:02:00,11.0,8.0,30.54,ESE,115,0.0,1.0,89,0.00,,,0.00,,2013-01-16 17:02:00,
2013-01-16 10:12:00,11.0,8.0,30.54,ESE,115,0.0,1.0,89,0.00,,,0.00,,2013-01-16 17:12:00,
2013-01-16 10:22:00,11.0,8.0,30.54,ESE,115,0.0,1.0,89,0.00,,,0.00,,2013-01-16 17:22:00,
2013-01-16 10:32:00,11.0,8.0,30.54,ESE,115,0.0,1.0,89,0.00,,,0.00,,2013-01-16 17:32:00,
2013-01-16 10:43:00,11.0,8.0,30.54,ESE,115,0.0,1.0,89,0.00,,,0.00,,2013-01-16 17:43:00,
2013-01-16 10:53:00,13.0,10.0,30.54,ESE,122,0.0,1.0,89,0.00,,,0.00,,2013-01-16 17:53:00,
2013-01-16 11:02:00,13.0,10.0,30.54,ESE,122,0.0,1.0,89,0.00,,,0.00,,2013-01-16 18:02:00,
2013-01-16 11:12:00,13.0,10.0,30.54,ESE,122,0.0,1.0,89,0.00,,,0.00,,2013-01-16 18:12:00,
2013-01-16 11:22:00,13.0,10.0,30.54,SSW,212,0.0,1.0,88,0.00,,,0.00,,2013-01-16 18:22:00,
2013-01-16 11:33:00,15.0,11.0,30.52,SSW,212,0.0,1.0,85,0.00,,,0.00,,2013-01-16 18:33:00,
2013-01-16 11:43:00,15.0,11.0,30.52,SSW,212,0.0,1.0,85,0.00,,,0.00,,2013-01-16 18:43:00,
2013-01-16 11:53:00,16.0,12.0,30.51,SSW,212,0.0,1.0,83,0.00,,,0.00,,2013-01-16 18:53:00,
2013-01-16 12:02:00,16.0,12.0,30.51,SW,214,0.0,2.0,83,0.00,,,0.00,,2013-01-16 19:02:00,
2013-01-16 12:12:00,16.0,12.0,30.51,SW,214,0.0,2.0,83,0.00,,,0.00,,2013-01-16 19:12:00,
2013-01-16 12:22:00,18.0,13.0,30.51,SW,228,0.0,2.0,82,0.00,,,0.00,,2013-01-16 19:22:00,
2013-01-16 12:32:00,20.0,15.0,30.48,WNW,284,0.0,2.0,79,0.01,,,0.01,,2013-01-16 19:32:00,
2013-01-16 12:42:00,20.0,15.0,30.48,WNW,284,0.0,2.0,79,0.01,,,0.01,,2013-01-16 19:42:00,
2013-01-16 12:52:00,22.0,16.0,30.50,North,359,0.0,2.0,78,0.01,,,0.01,,2013-01-16 19:52:00,
2013-01-16 13:02:00,22.0,16.0,30.48,NE,51,0.0,3.0,79,0.01,,,0.01,,2013-01-16 20:02:00,
2013-01-16 13:11:00,22.0,16.0,30.48,NE,51,0.0,3.0,79,0.01,,,0.01,,2013-01-16 20:11:00,
2013-01-16 13:22:00,23.0,17.0,30.48,WNW,285,1.0,3.0,78,0.01,,,0.01,,2013-01-16 20:22:00,
2013-01-16 13:32:00,22.0,16.0,30.49,WNW,286,0.0,1.0,76,0.01,,,0.02,,2013-01-16 20:32:00,
2013-01-16 13:42:00,22.0,16.0,30.49,WNW,286,0.0,1.0,76,0.01,,,0.02,,2013-01-16 20:42:00,
2013-01-16 13:53:00,24.0,19.0,30.48,NW,305,0.0,2.0,80,0.02,,,0.03,,2013-01-16 20:53:00,
2013-01-16 14:02:00,23.0,17.0,30.46,WNW,301,0.0,2.0,77,0.02,,,0.03,,2013-01-16 21:02:00,
2013-01-16 14:12:00,23.0,17.0,30.46,WNW,301,0.0,2.0,77,0.02,,,0.03,,2013-01-16 21:12:00,
2013-01-16 14:22:00,23.0,17.0,30.46,WNW,301,0.0,2.0,77,0.02,,,0.03,,2013-01-16 21:22:00,
2013-01-16 14:32:00,23.0,17.0,30.46,WNW,301,0.0,2.0,77,0.02,,,0.03,,2013-01-16 21:32:00,
2013-01-16 14:42:00,23.0,17.0,30.46,WNW,301,0.0,2.0,77,0.02,,,0.03,,2013-01-16 21:42:00,
2013-01-16 20:22:00,16.0,14.0,30.48,ENE,69,0.0,0.0,90,-99.99,,,-99.99,,2013-01-17 03:22:00,
2013-01-16 20:33:00,15.0,13.0,30.50,ENE,69,0.0,0.0,90,-99.99,,,-99.99,,2013-01-17 03:33:00,
2013-01-16 20:43:00,15.0,13.0,30.50,ENE,69,0.0,0.0,90,-99.99,,,-99.99,,2013-01-17 03:43:00,
2013-01-16 20:52:00,15.0,13.0,30.50,ENE,69,0.0,0.0,90,-99.99,,,-99.99,,2013-01-17 03:52:00,
2013-01-16 21:02:00,14.0,11.0,30.50,ENE,69,0.0,0.0,89,-99.99,,,-99.99,,2013-01-17 04:02:00,
2013-01-16 21:12:00,14.0,12.0,30.50,ENE,69,0.0,1.0,90,0.00,,,-99.99,,2013-01-17 04:12:00,
2013-01-16 21:22:00,14.0,12.0,30.50,ENE,69,0.0,1.0,90,0.00,,,-99.99,,2013-01-17 04:22:00,
2013-01-16 21:32:00,14.0,11.0,30.48,ENE,69,0.0,0.0,89,0.00,,,-99.99,,2013-01-17 04:32:00,
2013-01-16 21:42:00,14.0,11.0,30.48,ENE,69,0.0,0.0,89,0.00,,,-99.99,,2013-01-17 04:42:00,
2013-01-16 21:52:00,13.0,10.0,30.50,ENE,69,0.0,0.0,89,0.00,,,-99.99,,2013-01-17 04:52:00,
2013-01-16 22:03:00,12.0,9.0,30.49,ENE,69,0.0,0.0,89,0.00,,,-99.99,,2013-01-17 05:03:00,
2013-01-16 22:12:00,12.0,9.0,30.49,ENE,69,0.0,0.0,89,0.00,,,-99.99,,2013-01-17 05:12:00,
2013-01-16 22:22:00,13.0,10.0,30.50,ENE,69,0.0,0.0,89,0.00,,,-99.99,,2013-01-17 05:22:00,
2013-01-16 22:32:00,13.0,10.0,30.48,ENE,69,0.0,1.0,89,0.00,,,-99.99,,2013-01-17 05:32:00,
2013-01-16 22:42:00,13.0,10.0,30.48,ENE,69,0.0,1.0,89,0.00,,,-99.99,,2013-01-17 05:42:00,
2013-01-16 22:52:00,12.0,9.0,30.48,ENE,69,0.0,0.0,89,0.00,,,-99.99,,2013-01-17 05:52:00,
2013-01-16 23:02:00,13.0,10.0,30.48,ENE,69,0.0,0.0,89,0.00,,,-99.99,,2013-01-17 06:02:00,
2013-01-16 23:11:00,13.0,11.0,30.49,ENE,70,0.0,0.0,90,0.00,,,-99.99,,2013-01-17 06:11:00,
2013-01-16 23:22:00,13.0,11.0,30.49,ENE,70,0.0,0.0,90,0.00,,,-99.99,,2013-01-17 06:22:00,
2013-01-16 23:32:00,13.0,11.0,30.50,ENE,70,0.0,0.0,91,0.00,,,-99.99,,2013-01-17 06:32:00,
2013-01-16 23:42:00,13.0,11.0,30.50,ENE,70,0.0,0.0,91,0.00,,,-99.99,,2013-01-17 06:42:00,
2013-01-16 23:52:00,12.0,9.0,30.50,ENE,70,0.0,0.0,88,0.00,,,-99.99,,2013-01-17 06:52:00,